Seawolf — WDE7235 — position and weather

sailwx.info

Track history (hours):
 
Tides and Currents Weather Stations Pressure Air Temp Water Temp Dewpoint Dewpoint Depression Visibility Wind Speed Wind Dir Waves Ship Positions

Oceanographic research ship Seawolf (United States)

Owner: School of Marine and Atmospheric Sciences, Stony Brook University, NY, Stony Brook, NY. More information available from US FCC via Universal Licensing System and Coast Guard Vessel Documentation Center.

Last reported at 2017-Jun-21 17:11 UTC. Time now 2017-Jun-26 20:56 UTC.
Position N 40°49' W 073°47'.

Length 24 m; draft 3.5 m.

Type: Other ship. MMSI: 367390740.

Date/timePositionNaut miles runAvg speedWind from/ knotsBaromVisibWave heightAir tempDewpointWater temp
2017-Jun-21 17:11N 40°49' W 073°47'1 7.4
2017-Jun-21 16:59N 40°48' W 073°48'4 8.3
2017-Jun-21 16:31N 40°48' W 073°53'3 5.7
2017-Jun-21 16:00N 40°46' W 073°56'3 5.2
2017-Jun-21 15:30N 40°44' W 073°58'3 5.1
2017-Jun-21 15:01N 40°42' W 073°60'4 7.3
2017-Jun-21 14:31N 40°39' W 074°02'7 6.6
2017-Jun-21 13:29N 40°32' W 074°01'6 6.6
2017-Jun-21 12:38N 40°28' W 073°55'1 8.4
2017-Jun-21 12:29N 40°27' W 073°55'5 8.7
2017-Jun-21 11:54N 40°22' W 073°55'3 8.5
2017-Jun-21 11:30N 40°19' W 073°55'4 8.3
2017-Jun-21 11:01N 40°15' W 073°56'4 8.6
2017-Jun-21 10:30N 40°10' W 073°57'4 8.4
2017-Jun-21 10:00N 40°07' W 073°59'2 4.9
2017-Jun-21 09:31N 40°06' W 074°03'20 1.2
2017-Jun-20 16:45N 40°26' W 073°57'1 2.8
2017-Jun-20 16:27N 40°27' W 073°58'21 3.1
2017-Jun-20 09:49N 40°06' W 074°03'  
2017-Jun-17 13:35N 38°49' W 074°56'1 8.1
2017-Jun-17 13:26N 38°50' W 074°56'7 1.7
2017-Jun-17 09:20N 38°57' W 074°53'0 0.0
2017-Jun-17 07:49N 38°57' W 074°53'0 0.0
2017-Jun-17 07:24N 38°57' W 074°53'0 0.0
2017-Jun-17 06:50N 38°57' W 074°53'0 0.0
2017-Jun-17 06:18N 38°57' W 074°53'0 0.0
2017-Jun-17 05:51N 38°57' W 074°53'0 0.0
2017-Jun-17 05:30N 38°57' W 074°53'0 0.0
2017-Jun-17 05:00N 38°57' W 074°53'0 0.0
2017-Jun-17 04:30N 38°57' W 074°53'0 0.0
2017-Jun-17 04:00N 38°57' W 074°53'0 0.0
2017-Jun-17 03:31N 38°57' W 074°53'0 0.0
2017-Jun-17 03:00N 38°57' W 074°53'0 0.0
2017-Jun-17 02:30N 38°57' W 074°53'0 0.0
2017-Jun-17 02:00N 38°57' W 074°53'0 0.0
2017-Jun-17 01:30N 38°57' W 074°53'0 0.0
2017-Jun-17 01:00N 38°57' W 074°53'2 3.9
2017-Jun-17 00:28N 38°56' W 074°51'3 5.4
2017-Jun-17 00:00N 38°53' W 074°50'4 6.8
2017-Jun-16 23:25N 38°52' W 074°45'1 3.0
2017-Jun-16 22:59N 38°52' W 074°44'1 2.9
2017-Jun-16 22:30N 38°50' W 074°44'4 7.9
2017-Jun-16 21:58N 38°46' W 074°43'3 7.4
2017-Jun-16 21:30N 38°43' W 074°42'1 2.5
2017-Jun-16 21:00N 38°44' W 074°41'2 4.5
2017-Jun-16 20:30N 38°46' W 074°39'15 3.7
2017-Jun-16 16:37N 38°59' W 074°31'4 3.1
2017-Jun-16 15:19N 39°02' W 074°30'20 1.6
2017-Jun-16 02:34N 39°23' W 074°25'0 1.5
2017-Jun-16 02:16N 39°23' W 074°25'2 8.2
2017-Jun-16 02:00N 39°21' W 074°24'4 8.2
2017-Jun-16 01:30N 39°21' W 074°18'4 7.1
2017-Jun-16 01:00N 39°21' W 074°14'4 6.9
2017-Jun-16 00:29N 39°21' W 074°09'3 3.1
2017-Jun-15 23:35N 39°24' W 074°09'1 7.8
2017-Jun-15 23:29N 39°24' W 074°08'3 2.2
2017-Jun-15 22:17N 39°27' W 074°08'2 8.0
2017-Jun-15 21:59N 39°28' W 074°11'9 4.5
2017-Jun-15 20:03N 39°37' W 074°10'2 6.2
2017-Jun-15 19:42N 39°39' W 074°10'6 3.5
2017-Jun-15 18:05N 39°43' W 074°05'0 3.0
2017-Jun-15 18:00N 39°44' W 074°05'2 3.1
2017-Jun-15 17:30N 39°45' W 074°04'8 3.5
2017-Jun-15 15:05N 39°53' W 074°01'1 8.6
2017-Jun-15 14:57N 39°53' W 074°03'2 1.3
2017-Jun-15 13:30N 39°55' W 074°03'12 4.5
2017-Jun-15 10:52N 40°06' W 074°01'1 2.8
2017-Jun-15 10:26N 40°06' W 074°02'0 0.6
2017-Jun-15 10:00N 40°06' W 074°03'0 0.0
2017-Jun-15 09:30N 40°06' W 074°03'0 0.0
2017-Jun-15 09:00N 40°06' W 074°03'0 0.0
2017-Jun-15 08:28N 40°06' W 074°03'0 0.0
2017-Jun-15 07:55N 40°06' W 074°03'0 0.0
2017-Jun-15 07:10N 40°06' W 074°03'0 0.0
2017-Jun-15 06:53N 40°06' W 074°03'0 0.0
2017-Jun-15 06:00N 40°06' W 074°03'0 0.0
2017-Jun-15 04:47N 40°06' W 074°03'0 0.0
2017-Jun-15 04:29N 40°06' W 074°03'0 0.0
2017-Jun-15 03:59N 40°06' W 074°03'0 0.0
2017-Jun-15 03:15N 40°06' W 074°03'0 0.0
2017-Jun-15 02:48N 40°06' W 074°03'7 1.3
2017-Jun-14 21:37N 40°12' W 073°58'3 9.5
2017-Jun-14 21:19N 40°15' W 073°57'5 9.4
2017-Jun-14 20:44N 40°20' W 073°55'2 9.0
2017-Jun-14 20:30N 40°22' W 073°55'4 8.9
2017-Jun-14 20:00N 40°27' W 073°55'5 8.6
2017-Jun-14 19:26N 40°31' W 073°58'4 9.5
2017-Jun-14 19:00N 40°34' W 074°02'5 9.5
2017-Jun-14 18:31N 40°39' W 074°03'4 8.8
2017-Jun-14 18:01N 40°42' W 073°60'4 7.1
2017-Jun-14 17:31N 40°46' W 073°57'3 6.6
2017-Jun-14 17:01N 40°48' W 073°54'4 7.6
2017-Jun-14 16:30N 40°48' W 073°49'  
Track history (hours):
 
Tides and Currents Weather Stations Pressure Air Temp Water Temp Dewpoint Dewpoint Depression Visibility Wind Speed Wind Dir Waves Ship Positions

Oceanographic research ship Seawolf (United States)

Owner: School of Marine and Atmospheric Sciences, Stony Brook University, NY, Stony Brook, NY. More information available from US FCC via Universal Licensing System and Coast Guard Vessel Documentation Center.

Last reported at 2017-Jun-21 17:11 UTC. Time now 2017-Jun-26 20:56 UTC.
Position N 40°49' W 073°47'.

Length 24 m; draft 3.5 m.

Type: Other ship. MMSI: 367390740.

Date/timePositionNaut miles runAvg speedWind from/ knotsBaromVisibWave heightAir tempDewpointWater temp
2017-Jun-21 17:11N 40°49' W 073°47'1 7.4
2017-Jun-21 16:59N 40°48' W 073°48'4 8.3
2017-Jun-21 16:31N 40°48' W 073°53'3 5.7
2017-Jun-21 16:00N 40°46' W 073°56'3 5.2
2017-Jun-21 15:30N 40°44' W 073°58'3 5.1
2017-Jun-21 15:01N 40°42' W 073°60'4 7.3
2017-Jun-21 14:31N 40°39' W 074°02'7 6.6
2017-Jun-21 13:29N 40°32' W 074°01'6 6.6
2017-Jun-21 12:38N 40°28' W 073°55'1 8.4
2017-Jun-21 12:29N 40°27' W 073°55'5 8.7
2017-Jun-21 11:54N 40°22' W 073°55'3 8.5
2017-Jun-21 11:30N 40°19' W 073°55'4 8.3
2017-Jun-21 11:01N 40°15' W 073°56'4 8.6
2017-Jun-21 10:30N 40°10' W 073°57'4 8.4
2017-Jun-21 10:00N 40°07' W 073°59'2 4.9
2017-Jun-21 09:31N 40°06' W 074°03'20 1.2
2017-Jun-20 16:45N 40°26' W 073°57'1 2.8
2017-Jun-20 16:27N 40°27' W 073°58'21 3.1
2017-Jun-20 09:49N 40°06' W 074°03'  
2017-Jun-17 13:35N 38°49' W 074°56'1 8.1
2017-Jun-17 13:26N 38°50' W 074°56'7 1.7
2017-Jun-17 09:20N 38°57' W 074°53'0 0.0
2017-Jun-17 07:49N 38°57' W 074°53'0 0.0
2017-Jun-17 07:24N 38°57' W 074°53'0 0.0
2017-Jun-17 06:50N 38°57' W 074°53'0 0.0
2017-Jun-17 06:18N 38°57' W 074°53'0 0.0
2017-Jun-17 05:51N 38°57' W 074°53'0 0.0
2017-Jun-17 05:30N 38°57' W 074°53'0 0.0
2017-Jun-17 05:00N 38°57' W 074°53'0 0.0
2017-Jun-17 04:30N 38°57' W 074°53'0 0.0
2017-Jun-17 04:00N 38°57' W 074°53'0 0.0
2017-Jun-17 03:31N 38°57' W 074°53'0 0.0
2017-Jun-17 03:00N 38°57' W 074°53'0 0.0
2017-Jun-17 02:30N 38°57' W 074°53'0 0.0
2017-Jun-17 02:00N 38°57' W 074°53'0 0.0
2017-Jun-17 01:30N 38°57' W 074°53'0 0.0
2017-Jun-17 01:00N 38°57' W 074°53'2 3.9
2017-Jun-17 00:28N 38°56' W 074°51'3 5.4
2017-Jun-17 00:00N 38°53' W 074°50'4 6.8
2017-Jun-16 23:25N 38°52' W 074°45'1 3.0
2017-Jun-16 22:59N 38°52' W 074°44'1 2.9
2017-Jun-16 22:30N 38°50' W 074°44'4 7.9
2017-Jun-16 21:58N 38°46' W 074°43'3 7.4
2017-Jun-16 21:30N 38°43' W 074°42'1 2.5
2017-Jun-16 21:00N 38°44' W 074°41'2 4.5
2017-Jun-16 20:30N 38°46' W 074°39'15 3.7
2017-Jun-16 16:37N 38°59' W 074°31'4 3.1
2017-Jun-16 15:19N 39°02' W 074°30'20 1.6
2017-Jun-16 02:34N 39°23' W 074°25'0 1.5
2017-Jun-16 02:16N 39°23' W 074°25'2 8.2
2017-Jun-16 02:00N 39°21' W 074°24'4 8.2
2017-Jun-16 01:30N 39°21' W 074°18'4 7.1
2017-Jun-16 01:00N 39°21' W 074°14'4 6.9
2017-Jun-16 00:29N 39°21' W 074°09'3 3.1
2017-Jun-15 23:35N 39°24' W 074°09'1 7.8
2017-Jun-15 23:29N 39°24' W 074°08'3 2.2
2017-Jun-15 22:17N 39°27' W 074°08'2 8.0
2017-Jun-15 21:59N 39°28' W 074°11'9 4.5
2017-Jun-15 20:03N 39°37' W 074°10'2 6.2
2017-Jun-15 19:42N 39°39' W 074°10'6 3.5
2017-Jun-15 18:05N 39°43' W 074°05'0 3.0
2017-Jun-15 18:00N 39°44' W 074°05'2 3.1
2017-Jun-15 17:30N 39°45' W 074°04'8 3.5
2017-Jun-15 15:05N 39°53' W 074°01'1 8.6
2017-Jun-15 14:57N 39°53' W 074°03'2 1.3
2017-Jun-15 13:30N 39°55' W 074°03'12 4.5
2017-Jun-15 10:52N 40°06' W 074°01'1 2.8
2017-Jun-15 10:26N 40°06' W 074°02'0 0.6
2017-Jun-15 10:00N 40°06' W 074°03'0 0.0
2017-Jun-15 09:30N 40°06' W 074°03'0 0.0
2017-Jun-15 09:00N 40°06' W 074°03'0 0.0
2017-Jun-15 08:28N 40°06' W 074°03'0 0.0
2017-Jun-15 07:55N 40°06' W 074°03'0 0.0
2017-Jun-15 07:10N 40°06' W 074°03'0 0.0
2017-Jun-15 06:53N 40°06' W 074°03'0 0.0
2017-Jun-15 06:00N 40°06' W 074°03'0 0.0
2017-Jun-15 04:47N 40°06' W 074°03'0 0.0
2017-Jun-15 04:29N 40°06' W 074°03'0 0.0
2017-Jun-15 03:59N 40°06' W 074°03'0 0.0
2017-Jun-15 03:15N 40°06' W 074°03'0 0.0
2017-Jun-15 02:48N 40°06' W 074°03'7 1.3
2017-Jun-14 21:37N 40°12' W 073°58'3 9.5
2017-Jun-14 21:19N 40°15' W 073°57'5 9.4
2017-Jun-14 20:44N 40°20' W 073°55'2 9.0
2017-Jun-14 20:30N 40°22' W 073°55'4 8.9
2017-Jun-14 20:00N 40°27' W 073°55'5 8.6
2017-Jun-14 19:26N 40°31' W 073°58'4 9.5
2017-Jun-14 19:00N 40°34' W 074°02'5 9.5
2017-Jun-14 18:31N 40°39' W 074°03'4 8.8
2017-Jun-14 18:01N 40°42' W 073°60'4 7.1
2017-Jun-14 17:31N 40°46' W 073°57'3 6.6
2017-Jun-14 17:01N 40°48' W 073°54'4 7.6
2017-Jun-14 16:30N 40°48' W 073°49'  

Dump ship's entire track history